Airfield :
LOGIN :

Register | Disclaimer

   EN    FR    IT 

 










Legend :    VFR   Marginal VFR   IFR   Intensive IFR   Very Intensive IFR
Visi :
Ceiling :
>= 8 km
>= 3000ft
5 to 8 km
1000 to 3000 ft
1500m to 5 km
500 to 1000 ft
800 to 1500m
200 to 500 ft
< 800m
< 200 ft
Symbols :   Thunderstorms  Fog  Heavy snow  Heavy precipitations  Wind > 20 kt
SIGMETs :     Misc.  Thunderstorms  Icing  Turbulence  Mountain Waves  Volcanic Ashes







- Airport Elevation : 49 ft
- IATA code : GLZ


EHGR - Gilze-Rijen Airbase

CURRENT METAR :
  • 262025Z AUTO 22003KT 9999 SCT300 09/05 Q1017 BLU 28009KT 9999 SCT045 TEMPO 7000 -SHRA FEW030CB

EXPIRED METARs :
  • 261955Z AUTO 24002KT 9999 BKN060 BKN074 OVC090 10/05 Q1017 BLU 28009KT 9999 SCT045 TEMPO 7000 -SHRA FEW030CB
  • 261925Z AUTO 26006KT 230V300 9999 FEW080 11/05 Q1016 BLU 28009KT 9999 SCT045 TEMPO 7000 -SHRA FEW030CB
  • 261855Z AUTO 28007KT 260V320 9999 SCT044 SCT052 BKN064 11/06 Q1016 BLU 28009KT 9999 SCT045 TEMPO 7000 -SHRA FEW030CB
  • 261825Z AUTO 28007KT 250V320 9999 FEW040 OVC044 11/05 Q1016 REDZ BLU 28009KT 9999 SCT045 TEMPO 7000 -SHRA FEW030CB
  • 261755Z AUTO 28010KT 9999 FEW038 SCT048 BKN062 13/02 Q1016 BLU 28009KT 9999 SCT045 TEMPO 7000 -SHRA FEW030CB

TAF COR TAF EHGR
Valid from the 26 at 17:00 until the 27 at 05:00 UTC


261655Z 2617/2705 27015KT 9999 SCT040
PROB30 2617/2621 SCT030CB BKN040
BECMG 2618/2621 22006KT
No reported NOTAMs for that airfield.
1 SIGMET reported for the Amsterdam FIR (EHAA) :
 
Severe turbulence
EHAA SIGMET 1 VALID 261930/262200 EHDB
EHAA AMSTERDAM FIR SEV TURB OBS NE OF LINE N5423 E00247 - N5216 E00701 FL250/320 MOV NE 35KT NC=



MET'MAP, your aeronautical weather chart ! - Copyright ORBIFLY December 2007 - Disclaimer

ORBIFLY MET'MAP TEAM :

Programming & Development : Alexandra Zaïnal
Concept & Development : Baudouin d'Aumeries
Co-Development & Prog : Marc-Olivier Méhu
Technical & hardware support : Manuel Goepfert

Contact : metmap@orbifly.com




SOURCES & CREDITS :

   NOAA